sensor_id;sensor_type;location;lat;lon;timestamp;temperature;humidity
54429;DHT22;40337;52.978;6.310;2022-07-06T00:01:23;15.20;99.90
54429;DHT22;40337;52.978;6.310;2022-07-06T00:03:49;15.20;99.90
54429;DHT22;40337;52.978;6.310;2022-07-06T00:06:15;15.20;99.90
54429;DHT22;40337;52.978;6.310;2022-07-06T00:08:43;15.10;99.90
54429;DHT22;40337;52.978;6.310;2022-07-06T00:11:09;15.10;99.90
54429;DHT22;40337;52.978;6.310;2022-07-06T00:13:34;15.20;99.90
54429;DHT22;40337;52.978;6.310;2022-07-06T00:16:00;15.10;99.90
54429;DHT22;40337;52.978;6.310;2022-07-06T00:18:26;15.10;99.90
54429;DHT22;40337;52.978;6.310;2022-07-06T00:20:51;15.10;99.90
54429;DHT22;40337;52.978;6.310;2022-07-06T00:23:17;15.10;99.90
54429;DHT22;40337;52.978;6.310;2022-07-06T00:25:43;15.10;99.90
54429;DHT22;40337;52.978;6.310;2022-07-06T00:28:08;15.10;99.90
54429;DHT22;40337;52.978;6.310;2022-07-06T00:30:34;15.10;99.90
54429;DHT22;40337;52.978;6.310;2022-07-06T00:33:00;15.10;99.90
54429;DHT22;40337;52.978;6.310;2022-07-06T00:35:26;15.10;99.90
54429;DHT22;40337;52.978;6.310;2022-07-06T00:37:51;15.00;99.90
54429;DHT22;40337;52.978;6.310;2022-07-06T00:40:18;15.00;99.90
54429;DHT22;40337;52.978;6.310;2022-07-06T00:42:46;15.00;99.90
54429;DHT22;40337;52.978;6.310;2022-07-06T00:45:13;15.00;99.90
54429;DHT22;40337;52.978;6.310;2022-07-06T00:47:39;15.00;99.90
54429;DHT22;40337;52.978;6.310;2022-07-06T00:50:06;14.90;99.90
54429;DHT22;40337;52.978;6.310;2022-07-06T00:55:25;14.90;99.90
54429;DHT22;40337;52.978;6.310;2022-07-06T00:57:52;14.80;99.90
54429;DHT22;40337;52.978;6.310;2022-07-06T01:00:20;14.80;99.90
54429;DHT22;40337;52.978;6.310;2022-07-06T01:02:46;14.80;99.90
54429;DHT22;40337;52.978;6.310;2022-07-06T01:05:13;14.80;99.90
54429;DHT22;40337;52.978;6.310;2022-07-06T01:07:41;14.80;99.90
54429;DHT22;40337;52.978;6.310;2022-07-06T01:10:08;14.80;99.90
54429;DHT22;40337;52.978;6.310;2022-07-06T01:12:35;14.70;99.90
54429;DHT22;40337;52.978;6.310;2022-07-06T01:15:03;14.70;99.90
54429;DHT22;40337;52.978;6.310;2022-07-06T01:17:30;14.70;99.90
54429;DHT22;40337;52.978;6.310;2022-07-06T01:19:56;14.70;99.90
54429;DHT22;40337;52.978;6.310;2022-07-06T01:22:21;14.60;99.90
54429;DHT22;40337;52.978;6.310;2022-07-06T01:24:47;14.70;99.90
54429;DHT22;40337;52.978;6.310;2022-07-06T01:27:13;14.70;99.90
54429;DHT22;40337;52.978;6.310;2022-07-06T01:29:38;14.80;99.90
54429;DHT22;40337;52.978;6.310;2022-07-06T01:32:04;14.80;99.90
54429;DHT22;40337;52.978;6.310;2022-07-06T01:34:30;14.70;99.90
54429;DHT22;40337;52.978;6.310;2022-07-06T01:36:55;14.70;99.90
54429;DHT22;40337;52.978;6.310;2022-07-06T01:39:21;14.70;99.90
54429;DHT22;40337;52.978;6.310;2022-07-06T01:41:47;14.60;99.90
54429;DHT22;40337;52.978;6.310;2022-07-06T01:44:12;14.60;99.90
54429;DHT22;40337;52.978;6.310;2022-07-06T01:46:38;14.60;99.90
54429;DHT22;40337;52.978;6.310;2022-07-06T01:49:04;14.60;99.90
54429;DHT22;40337;52.978;6.310;2022-07-06T01:51:30;14.50;99.90
54429;DHT22;40337;52.978;6.310;2022-07-06T01:53:56;14.50;99.90
54429;DHT22;40337;52.978;6.310;2022-07-06T01:56:21;14.50;99.90
54429;DHT22;40337;52.978;6.310;2022-07-06T01:58:47;14.40;99.90
54429;DHT22;40337;52.978;6.310;2022-07-06T02:01:18;14.40;99.90
54429;DHT22;40337;52.978;6.310;2022-07-06T02:03:44;14.40;99.90
54429;DHT22;40337;52.978;6.310;2022-07-06T02:06:10;14.40;99.90
54429;DHT22;40337;52.978;6.310;2022-07-06T02:08:38;14.50;99.90
54429;DHT22;40337;52.978;6.310;2022-07-06T02:11:05;14.50;99.90
54429;DHT22;40337;52.978;6.310;2022-07-06T02:13:30;14.50;99.90
54429;DHT22;40337;52.978;6.310;2022-07-06T02:15:56;14.50;99.90
54429;DHT22;40337;52.978;6.310;2022-07-06T02:18:22;14.50;99.90
54429;DHT22;40337;52.978;6.310;2022-07-06T02:20:47;14.50;99.90
54429;DHT22;40337;52.978;6.310;2022-07-06T02:23:13;14.50;99.90
54429;DHT22;40337;52.978;6.310;2022-07-06T02:25:38;14.40;99.90
54429;DHT22;40337;52.978;6.310;2022-07-06T02:28:04;14.50;99.90
54429;DHT22;40337;52.978;6.310;2022-07-06T02:30:30;14.50;99.90
54429;DHT22;40337;52.978;6.310;2022-07-06T02:32:55;14.50;99.90
54429;DHT22;40337;52.978;6.310;2022-07-06T02:35:21;14.50;99.90
54429;DHT22;40337;52.978;6.310;2022-07-06T02:37:46;14.60;99.90
54429;DHT22;40337;52.978;6.310;2022-07-06T02:40:12;14.60;99.90
54429;DHT22;40337;52.978;6.310;2022-07-06T02:42:38;14.60;99.90
54429;DHT22;40337;52.978;6.310;2022-07-06T02:45:04;14.60;99.90
54429;DHT22;40337;52.978;6.310;2022-07-06T02:47:31;14.70;99.90
54429;DHT22;40337;52.978;6.310;2022-07-06T02:49:56;14.60;99.90
54429;DHT22;40337;52.978;6.310;2022-07-06T02:52:22;14.70;99.90
54429;DHT22;40337;52.978;6.310;2022-07-06T02:54:48;14.70;99.90
54429;DHT22;40337;52.978;6.310;2022-07-06T02:57:15;14.70;99.90
54429;DHT22;40337;52.978;6.310;2022-07-06T02:59:40;14.70;99.90
54429;DHT22;40337;52.978;6.310;2022-07-06T03:02:06;14.70;99.90
54429;DHT22;40337;52.978;6.310;2022-07-06T03:04:32;14.80;99.90
54429;DHT22;40337;52.978;6.310;2022-07-06T03:06:58;14.70;99.90
54429;DHT22;40337;52.978;6.310;2022-07-06T03:09:24;14.70;99.90
54429;DHT22;40337;52.978;6.310;2022-07-06T03:11:50;14.70;99.90
54429;DHT22;40337;52.978;6.310;2022-07-06T03:14:15;14.70;99.90
54429;DHT22;40337;52.978;6.310;2022-07-06T03:16:41;14.80;99.90
54429;DHT22;40337;52.978;6.310;2022-07-06T03:19:06;14.80;99.90
54429;DHT22;40337;52.978;6.310;2022-07-06T03:21:32;14.70;99.90
54429;DHT22;40337;52.978;6.310;2022-07-06T03:23:58;14.80;99.90
54429;DHT22;40337;52.978;6.310;2022-07-06T03:26:23;14.80;99.90
54429;DHT22;40337;52.978;6.310;2022-07-06T03:28:49;14.80;99.90
54429;DHT22;40337;52.978;6.310;2022-07-06T03:31:15;14.80;99.90
54429;DHT22;40337;52.978;6.310;2022-07-06T03:33:40;14.80;99.90
54429;DHT22;40337;52.978;6.310;2022-07-06T03:36:06;14.90;99.90
54429;DHT22;40337;52.978;6.310;2022-07-06T03:38:33;14.90;99.90
54429;DHT22;40337;52.978;6.310;2022-07-06T03:40:58;14.90;99.90
54429;DHT22;40337;52.978;6.310;2022-07-06T03:43:24;14.90;99.90
54429;DHT22;40337;52.978;6.310;2022-07-06T03:45:50;14.90;99.90
54429;DHT22;40337;52.978;6.310;2022-07-06T03:48:15;14.90;99.90
54429;DHT22;40337;52.978;6.310;2022-07-06T03:50:41;14.90;99.90
54429;DHT22;40337;52.978;6.310;2022-07-06T03:53:06;14.90;99.90
54429;DHT22;40337;52.978;6.310;2022-07-06T03:55:32;14.80;99.90
54429;DHT22;40337;52.978;6.310;2022-07-06T03:57:58;14.70;99.90
54429;DHT22;40337;52.978;6.310;2022-07-06T04:00:23;14.70;99.90
54429;DHT22;40337;52.978;6.310;2022-07-06T04:02:49;14.60;99.90
54429;DHT22;40337;52.978;6.310;2022-07-06T04:05:14;14.60;99.90
54429;DHT22;40337;52.978;6.310;2022-07-06T04:07:41;14.60;99.90
54429;DHT22;40337;52.978;6.310;2022-07-06T04:10:07;14.50;99.90
54429;DHT22;40337;52.978;6.310;2022-07-06T04:12:42;14.50;99.90
54429;DHT22;40337;52.978;6.310;2022-07-06T04:15:08;14.50;99.90
54429;DHT22;40337;52.978;6.310;2022-07-06T04:17:34;14.40;99.90
54429;DHT22;40337;52.978;6.310;2022-07-06T04:20:18;14.40;99.90
54429;DHT22;40337;52.978;6.310;2022-07-06T04:22:44;14.40;99.90
54429;DHT22;40337;52.978;6.310;2022-07-06T04:25:10;14.40;99.90
54429;DHT22;40337;52.978;6.310;2022-07-06T04:27:35;14.40;99.90
54429;DHT22;40337;52.978;6.310;2022-07-06T04:30:03;14.30;99.90
54429;DHT22;40337;52.978;6.310;2022-07-06T04:32:28;14.30;99.90
54429;DHT22;40337;52.978;6.310;2022-07-06T04:34:54;14.30;99.90
54429;DHT22;40337;52.978;6.310;2022-07-06T04:37:20;14.20;99.90
54429;DHT22;40337;52.978;6.310;2022-07-06T04:39:45;14.20;99.90
54429;DHT22;40337;52.978;6.310;2022-07-06T04:42:11;14.20;99.90
54429;DHT22;40337;52.978;6.310;2022-07-06T04:44:36;14.20;99.90
54429;DHT22;40337;52.978;6.310;2022-07-06T04:47:02;14.20;99.90
54429;DHT22;40337;52.978;6.310;2022-07-06T04:49:28;14.20;99.90
54429;DHT22;40337;52.978;6.310;2022-07-06T04:51:53;14.30;99.90
54429;DHT22;40337;52.978;6.310;2022-07-06T04:54:20;14.40;99.90
54429;DHT22;40337;52.978;6.310;2022-07-06T04:56:46;14.50;99.90
54429;DHT22;40337;52.978;6.310;2022-07-06T04:59:12;14.60;99.90
54429;DHT22;40337;52.978;6.310;2022-07-06T05:01:38;14.60;99.90
54429;DHT22;40337;52.978;6.310;2022-07-06T05:04:03;14.70;99.90
54429;DHT22;40337;52.978;6.310;2022-07-06T05:06:29;14.70;99.90
54429;DHT22;40337;52.978;6.310;2022-07-06T05:08:55;14.80;99.90
54429;DHT22;40337;52.978;6.310;2022-07-06T05:11:20;14.90;99.90
54429;DHT22;40337;52.978;6.310;2022-07-06T05:13:46;14.90;99.90
54429;DHT22;40337;52.978;6.310;2022-07-06T05:16:12;15.00;99.90
54429;DHT22;40337;52.978;6.310;2022-07-06T05:18:37;15.00;99.90
54429;DHT22;40337;52.978;6.310;2022-07-06T05:21:03;15.00;99.90
54429;DHT22;40337;52.978;6.310;2022-07-06T05:23:28;15.10;99.90
54429;DHT22;40337;52.978;6.310;2022-07-06T05:25:54;15.10;99.90
54429;DHT22;40337;52.978;6.310;2022-07-06T05:28:20;15.10;99.90
54429;DHT22;40337;52.978;6.310;2022-07-06T05:30:45;15.20;99.90
54429;DHT22;40337;52.978;6.310;2022-07-06T05:33:11;15.20;99.90
54429;DHT22;40337;52.978;6.310;2022-07-06T05:35:37;15.20;99.90
54429;DHT22;40337;52.978;6.310;2022-07-06T05:38:02;15.20;99.90
54429;DHT22;40337;52.978;6.310;2022-07-06T05:40:28;15.20;99.90
54429;DHT22;40337;52.978;6.310;2022-07-06T05:42:54;15.20;99.90
54429;DHT22;40337;52.978;6.310;2022-07-06T05:45:19;15.30;99.90
54429;DHT22;40337;52.978;6.310;2022-07-06T05:47:45;15.30;99.90
54429;DHT22;40337;52.978;6.310;2022-07-06T05:50:29;15.30;99.90
54429;DHT22;40337;52.978;6.310;2022-07-06T05:53:00;15.40;99.90
54429;DHT22;40337;52.978;6.310;2022-07-06T05:55:26;15.40;99.90
54429;DHT22;40337;52.978;6.310;2022-07-06T05:57:53;15.30;99.90
54429;DHT22;40337;52.978;6.310;2022-07-06T06:00:20;15.30;99.90
54429;DHT22;40337;52.978;6.310;2022-07-06T06:02:46;15.30;99.90
54429;DHT22;40337;52.978;6.310;2022-07-06T06:05:13;15.40;99.90
54429;DHT22;40337;52.978;6.310;2022-07-06T06:07:40;15.40;99.90
54429;DHT22;40337;52.978;6.310;2022-07-06T06:10:08;15.40;99.90
54429;DHT22;40337;52.978;6.310;2022-07-06T06:12:34;15.50;99.90
54429;DHT22;40337;52.978;6.310;2022-07-06T06:15:00;15.60;99.90
54429;DHT22;40337;52.978;6.310;2022-07-06T06:17:26;15.70;99.90
54429;DHT22;40337;52.978;6.310;2022-07-06T06:19:52;15.70;99.90
54429;DHT22;40337;52.978;6.310;2022-07-06T06:22:17;15.80;99.90
54429;DHT22;40337;52.978;6.310;2022-07-06T06:24:43;15.80;99.90
54429;DHT22;40337;52.978;6.310;2022-07-06T06:27:09;15.80;99.90
54429;DHT22;40337;52.978;6.310;2022-07-06T06:29:34;15.80;99.90
54429;DHT22;40337;52.978;6.310;2022-07-06T06:32:00;15.70;99.90
54429;DHT22;40337;52.978;6.310;2022-07-06T06:34:25;15.70;99.90
54429;DHT22;40337;52.978;6.310;2022-07-06T06:36:51;15.60;99.90
54429;DHT22;40337;52.978;6.310;2022-07-06T06:39:17;15.60;99.90
54429;DHT22;40337;52.978;6.310;2022-07-06T06:41:42;15.60;99.90
54429;DHT22;40337;52.978;6.310;2022-07-06T06:44:08;15.60;99.90
54429;DHT22;40337;52.978;6.310;2022-07-06T06:46:34;15.70;99.90
54429;DHT22;40337;52.978;6.310;2022-07-06T06:48:59;15.70;99.90
54429;DHT22;40337;52.978;6.310;2022-07-06T06:51:25;15.80;99.90
54429;DHT22;40337;52.978;6.310;2022-07-06T06:53:50;15.80;99.90
54429;DHT22;40337;52.978;6.310;2022-07-06T06:56:16;15.90;99.90
54429;DHT22;40337;52.978;6.310;2022-07-06T06:58:42;16.00;99.90
54429;DHT22;40337;52.978;6.310;2022-07-06T07:01:08;16.10;99.90
54429;DHT22;40337;52.978;6.310;2022-07-06T07:03:34;16.20;99.90
54429;DHT22;40337;52.978;6.310;2022-07-06T07:05:59;16.40;99.90
54429;DHT22;40337;52.978;6.310;2022-07-06T07:08:25;16.70;99.90
54429;DHT22;40337;52.978;6.310;2022-07-06T07:10:51;17.10;99.90
54429;DHT22;40337;52.978;6.310;2022-07-06T07:13:16;17.60;99.90
54429;DHT22;40337;52.978;6.310;2022-07-06T07:15:42;18.10;99.90
54429;DHT22;40337;52.978;6.310;2022-07-06T07:18:07;18.50;99.90
54429;DHT22;40337;52.978;6.310;2022-07-06T07:20:33;18.70;99.90
54429;DHT22;40337;52.978;6.310;2022-07-06T07:23:00;18.60;99.90
54429;DHT22;40337;52.978;6.310;2022-07-06T07:25:26;18.70;99.90
54429;DHT22;40337;52.978;6.310;2022-07-06T07:27:52;18.80;99.90
54429;DHT22;40337;52.978;6.310;2022-07-06T07:30:17;19.00;99.90
54429;DHT22;40337;52.978;6.310;2022-07-06T07:32:43;19.10;99.90
54429;DHT22;40337;52.978;6.310;2022-07-06T07:35:09;19.00;99.90
54429;DHT22;40337;52.978;6.310;2022-07-06T07:37:35;18.60;99.90
54429;DHT22;40337;52.978;6.310;2022-07-06T07:40:01;18.40;99.90
54429;DHT22;40337;52.978;6.310;2022-07-06T07:42:26;18.20;99.90
54429;DHT22;40337;52.978;6.310;2022-07-06T07:44:52;18.10;99.90
54429;DHT22;40337;52.978;6.310;2022-07-06T07:47:18;18.10;99.90
54429;DHT22;40337;52.978;6.310;2022-07-06T07:49:43;18.30;99.90
54429;DHT22;40337;52.978;6.310;2022-07-06T07:52:09;18.40;99.90
54429;DHT22;40337;52.978;6.310;2022-07-06T07:54:35;18.50;99.90
54429;DHT22;40337;52.978;6.310;2022-07-06T07:57:01;18.50;99.90
54429;DHT22;40337;52.978;6.310;2022-07-06T07:59:26;18.20;99.90
54429;DHT22;40337;52.978;6.310;2022-07-06T08:01:52;18.10;99.90
54429;DHT22;40337;52.978;6.310;2022-07-06T08:04:17;17.90;99.90
54429;DHT22;40337;52.978;6.310;2022-07-06T08:06:43;17.90;99.90
54429;DHT22;40337;52.978;6.310;2022-07-06T08:09:09;18.00;99.90
54429;DHT22;40337;52.978;6.310;2022-07-06T08:11:35;18.40;99.90
54429;DHT22;40337;52.978;6.310;2022-07-06T08:14:01;18.40;99.90
54429;DHT22;40337;52.978;6.310;2022-07-06T08:16:28;18.40;99.90
54429;DHT22;40337;52.978;6.310;2022-07-06T08:18:53;18.50;99.90
54429;DHT22;40337;52.978;6.310;2022-07-06T08:21:19;18.50;99.90
54429;DHT22;40337;52.978;6.310;2022-07-06T08:23:45;18.70;99.90
54429;DHT22;40337;52.978;6.310;2022-07-06T08:26:11;19.20;99.90
54429;DHT22;40337;52.978;6.310;2022-07-06T08:28:36;19.30;99.90
54429;DHT22;40337;52.978;6.310;2022-07-06T08:31:02;19.40;99.80
54429;DHT22;40337;52.978;6.310;2022-07-06T08:33:28;19.50;99.20
54429;DHT22;40337;52.978;6.310;2022-07-06T08:35:53;19.50;98.90
54429;DHT22;40337;52.978;6.310;2022-07-06T08:38:19;19.50;99.40
54429;DHT22;40337;52.978;6.310;2022-07-06T08:40:47;19.60;98.80
54429;DHT22;40337;52.978;6.310;2022-07-06T08:43:14;20.10;99.00
54429;DHT22;40337;52.978;6.310;2022-07-06T08:45:41;20.40;98.50
54429;DHT22;40337;52.978;6.310;2022-07-06T08:48:10;20.70;98.00
54429;DHT22;40337;52.978;6.310;2022-07-06T08:50:36;21.20;96.90
54429;DHT22;40337;52.978;6.310;2022-07-06T08:53:02;21.50;96.40
54429;DHT22;40337;52.978;6.310;2022-07-06T08:55:28;21.40;96.10
54429;DHT22;40337;52.978;6.310;2022-07-06T08:57:55;21.00;95.10
54429;DHT22;40337;52.978;6.310;2022-07-06T09:00:21;21.00;95.50
54429;DHT22;40337;52.978;6.310;2022-07-06T09:02:49;21.00;94.80
54429;DHT22;40337;52.978;6.310;2022-07-06T09:05:21;21.20;94.10
54429;DHT22;40337;52.978;6.310;2022-07-06T09:07:49;21.40;93.90
54429;DHT22;40337;52.978;6.310;2022-07-06T09:10:18;21.70;94.40
54429;DHT22;40337;52.978;6.310;2022-07-06T09:12:44;21.60;94.20
54429;DHT22;40337;52.978;6.310;2022-07-06T09:15:10;21.70;94.20
54429;DHT22;40337;52.978;6.310;2022-07-06T09:17:38;22.00;94.70
54429;DHT22;40337;52.978;6.310;2022-07-06T09:20:10;22.50;93.80
54429;DHT22;40337;52.978;6.310;2022-07-06T09:22:37;23.00;93.50
54429;DHT22;40337;52.978;6.310;2022-07-06T09:25:04;23.20;92.50
54429;DHT22;40337;52.978;6.310;2022-07-06T09:27:30;23.30;91.50
54429;DHT22;40337;52.978;6.310;2022-07-06T09:29:59;22.80;89.80
54429;DHT22;40337;52.978;6.310;2022-07-06T09:32:26;22.70;89.20
54429;DHT22;40337;52.978;6.310;2022-07-06T09:34:51;22.30;90.20
54429;DHT22;40337;52.978;6.310;2022-07-06T09:37:17;21.90;90.80
54429;DHT22;40337;52.978;6.310;2022-07-06T09:39:43;22.20;90.80
54429;DHT22;40337;52.978;6.310;2022-07-06T09:42:10;22.30;91.20
54429;DHT22;40337;52.978;6.310;2022-07-06T09:44:38;22.50;90.90
54429;DHT22;40337;52.978;6.310;2022-07-06T09:47:06;22.80;92.00
54429;DHT22;40337;52.978;6.310;2022-07-06T09:49:32;22.60;90.40
54429;DHT22;40337;52.978;6.310;2022-07-06T09:52:00;22.20;90.60
54429;DHT22;40337;52.978;6.310;2022-07-06T09:54:26;21.70;90.60
54429;DHT22;40337;52.978;6.310;2022-07-06T09:56:53;21.30;90.20
54429;DHT22;40337;52.978;6.310;2022-07-06T09:59:24;21.10;91.00
54429;DHT22;40337;52.978;6.310;2022-07-06T10:01:58;20.90;91.40
54429;DHT22;40337;52.978;6.310;2022-07-06T10:04:25;20.80;92.80
54429;DHT22;40337;52.978;6.310;2022-07-06T10:06:52;20.60;93.80
54429;DHT22;40337;52.978;6.310;2022-07-06T10:09:19;21.00;94.30
54429;DHT22;40337;52.978;6.310;2022-07-06T10:11:51;21.20;94.20
54429;DHT22;40337;52.978;6.310;2022-07-06T10:14:20;21.40;92.70
54429;DHT22;40337;52.978;6.310;2022-07-06T10:16:46;21.50;92.20
54429;DHT22;40337;52.978;6.310;2022-07-06T10:19:13;21.80;91.60
54429;DHT22;40337;52.978;6.310;2022-07-06T10:21:40;22.10;92.20
54429;DHT22;40337;52.978;6.310;2022-07-06T10:24:07;22.30;91.90
54429;DHT22;40337;52.978;6.310;2022-07-06T10:26:34;22.60;91.30
54429;DHT22;40337;52.978;6.310;2022-07-06T10:29:01;22.50;90.40
54429;DHT22;40337;52.978;6.310;2022-07-06T10:31:28;22.80;90.60
54429;DHT22;40337;52.978;6.310;2022-07-06T10:33:56;23.00;89.40
54429;DHT22;40337;52.978;6.310;2022-07-06T10:36:22;23.40;90.10
54429;DHT22;40337;52.978;6.310;2022-07-06T10:38:50;23.60;87.50
54429;DHT22;40337;52.978;6.310;2022-07-06T10:41:16;23.80;87.80
54429;DHT22;40337;52.978;6.310;2022-07-06T10:43:44;23.70;87.10
54429;DHT22;40337;52.978;6.310;2022-07-06T10:46:17;23.90;85.00
54429;DHT22;40337;52.978;6.310;2022-07-06T10:48:46;23.60;85.30
54429;DHT22;40337;52.978;6.310;2022-07-06T10:51:25;23.20;86.00
54429;DHT22;40337;52.978;6.310;2022-07-06T10:53:58;22.70;86.10
54429;DHT22;40337;52.978;6.310;2022-07-06T10:56:36;22.60;88.30
54429;DHT22;40337;52.978;6.310;2022-07-06T10:59:24;22.90;88.60
54429;DHT22;40337;52.978;6.310;2022-07-06T11:02:14;23.20;87.90
54429;DHT22;40337;52.978;6.310;2022-07-06T11:04:42;23.30;86.00
54429;DHT22;40337;52.978;6.310;2022-07-06T11:07:14;23.00;85.90
54429;DHT22;40337;52.978;6.310;2022-07-06T11:09:40;22.90;86.00
54429;DHT22;40337;52.978;6.310;2022-07-06T11:12:17;23.00;85.10
54429;DHT22;40337;52.978;6.310;2022-07-06T11:14:50;23.30;84.10
54429;DHT22;40337;52.978;6.310;2022-07-06T11:17:17;23.20;82.90
54429;DHT22;40337;52.978;6.310;2022-07-06T11:19:50;22.60;81.70
54429;DHT22;40337;52.978;6.310;2022-07-06T11:22:17;23.00;81.80
54429;DHT22;40337;52.978;6.310;2022-07-06T11:24:44;23.50;80.60
54429;DHT22;40337;52.978;6.310;2022-07-06T11:27:10;23.20;78.60
54429;DHT22;40337;52.978;6.310;2022-07-06T11:29:36;23.10;79.20
54429;DHT22;40337;52.978;6.310;2022-07-06T11:32:05;23.40;82.70
54429;DHT22;40337;52.978;6.310;2022-07-06T11:34:33;23.80;81.80
54429;DHT22;40337;52.978;6.310;2022-07-06T11:37:13;24.20;80.40
54429;DHT22;40337;52.978;6.310;2022-07-06T11:39:44;24.00;78.70
54429;DHT22;40337;52.978;6.310;2022-07-06T11:42:12;23.60;78.30
54429;DHT22;40337;52.978;6.310;2022-07-06T11:44:39;23.80;77.70
54429;DHT22;40337;52.978;6.310;2022-07-06T11:47:07;24.00;77.10
54429;DHT22;40337;52.978;6.310;2022-07-06T11:49:35;23.70;76.70
54429;DHT22;40337;52.978;6.310;2022-07-06T11:52:08;23.20;77.30
54429;DHT22;40337;52.978;6.310;2022-07-06T11:54:35;23.40;77.10
54429;DHT22;40337;52.978;6.310;2022-07-06T11:57:01;23.30;76.30
54429;DHT22;40337;52.978;6.310;2022-07-06T11:59:35;23.40;76.50
54429;DHT22;40337;52.978;6.310;2022-07-06T12:02:03;23.50;78.10
54429;DHT22;40337;52.978;6.310;2022-07-06T12:04:34;23.20;75.50
54429;DHT22;40337;52.978;6.310;2022-07-06T12:07:01;23.40;78.20
54429;DHT22;40337;52.978;6.310;2022-07-06T12:09:30;23.30;78.20
54429;DHT22;40337;52.978;6.310;2022-07-06T12:11:56;23.10;78.30
54429;DHT22;40337;52.978;6.310;2022-07-06T12:14:22;22.90;78.30
54429;DHT22;40337;52.978;6.310;2022-07-06T12:16:50;22.70;78.30
54429;DHT22;40337;52.978;6.310;2022-07-06T12:19:16;23.00;80.50
54429;DHT22;40337;52.978;6.310;2022-07-06T12:21:47;23.20;80.50
54429;DHT22;40337;52.978;6.310;2022-07-06T12:24:21;23.10;78.30
54429;DHT22;40337;52.978;6.310;2022-07-06T12:26:48;22.80;78.20
54429;DHT22;40337;52.978;6.310;2022-07-06T12:29:14;22.90;79.60
54429;DHT22;40337;52.978;6.310;2022-07-06T12:36:57;23.20;78.00
54429;DHT22;40337;52.978;6.310;2022-07-06T12:39:27;23.10;78.50
54429;DHT22;40337;52.978;6.310;2022-07-06T12:41:55;23.00;77.10
54429;DHT22;40337;52.978;6.310;2022-07-06T12:44:25;22.80;78.00
54429;DHT22;40337;52.978;6.310;2022-07-06T12:47:03;22.60;78.10
54429;DHT22;40337;52.978;6.310;2022-07-06T12:49:29;22.40;78.10
54429;DHT22;40337;52.978;6.310;2022-07-06T12:51:59;22.30;80.00
54429;DHT22;40337;52.978;6.310;2022-07-06T12:54:28;22.40;80.50
54429;DHT22;40337;52.978;6.310;2022-07-06T12:59:35;22.30;81.60
54429;DHT22;40337;52.978;6.310;2022-07-06T13:02:01;22.00;80.60
54429;DHT22;40337;52.978;6.310;2022-07-06T13:04:29;21.90;81.90
54429;DHT22;40337;52.978;6.310;2022-07-06T13:06:55;21.80;82.10
54429;DHT22;40337;52.978;6.310;2022-07-06T13:09:21;21.50;83.10
54429;DHT22;40337;52.978;6.310;2022-07-06T13:14:22;21.20;83.30
54429;DHT22;40337;52.978;6.310;2022-07-06T13:16:48;21.00;84.40
54429;DHT22;40337;52.978;6.310;2022-07-06T13:19:14;21.00;84.90
54429;DHT22;40337;52.978;6.310;2022-07-06T13:21:40;21.00;84.90
54429;DHT22;40337;52.978;6.310;2022-07-06T13:24:06;21.10;85.70
54429;DHT22;40337;52.978;6.310;2022-07-06T13:26:32;21.10;85.90
54429;DHT22;40337;52.978;6.310;2022-07-06T13:29:05;21.10;84.20
54429;DHT22;40337;52.978;6.310;2022-07-06T13:31:31;21.00;84.60
54429;DHT22;40337;52.978;6.310;2022-07-06T13:33:57;20.90;85.00
54429;DHT22;40337;52.978;6.310;2022-07-06T13:36:25;20.90;85.70
54429;DHT22;40337;52.978;6.310;2022-07-06T13:38:51;21.00;85.00
54429;DHT22;40337;52.978;6.310;2022-07-06T13:41:16;21.00;84.40
54429;DHT22;40337;52.978;6.310;2022-07-06T13:43:42;21.00;83.70
54429;DHT22;40337;52.978;6.310;2022-07-06T13:46:08;20.90;85.70
54429;DHT22;40337;52.978;6.310;2022-07-06T13:48:34;20.80;85.00
54429;DHT22;40337;52.978;6.310;2022-07-06T13:51:00;20.70;85.70
54429;DHT22;40337;52.978;6.310;2022-07-06T13:53:26;20.70;85.40
54429;DHT22;40337;52.978;6.310;2022-07-06T13:55:52;20.50;85.20
54429;DHT22;40337;52.978;6.310;2022-07-06T13:58:18;20.60;85.10
54429;DHT22;40337;52.978;6.310;2022-07-06T14:00:44;20.50;86.60
54429;DHT22;40337;52.978;6.310;2022-07-06T14:03:10;20.50;87.70
54429;DHT22;40337;52.978;6.310;2022-07-06T14:05:36;20.40;87.90
54429;DHT22;40337;52.978;6.310;2022-07-06T14:08:01;20.30;89.00
54429;DHT22;40337;52.978;6.310;2022-07-06T14:10:27;20.20;89.10
54429;DHT22;40337;52.978;6.310;2022-07-06T14:12:53;20.10;89.70
54429;DHT22;40337;52.978;6.310;2022-07-06T14:15:19;19.90;89.40
54429;DHT22;40337;52.978;6.310;2022-07-06T14:17:45;19.90;89.90
54429;DHT22;40337;52.978;6.310;2022-07-06T14:20:13;19.80;90.20
54429;DHT22;40337;52.978;6.310;2022-07-06T14:22:39;19.80;90.50
54429;DHT22;40337;52.978;6.310;2022-07-06T14:25:05;19.80;91.10
54429;DHT22;40337;52.978;6.310;2022-07-06T14:27:32;19.90;90.60
54429;DHT22;40337;52.978;6.310;2022-07-06T14:29:58;19.90;90.90
54429;DHT22;40337;52.978;6.310;2022-07-06T14:32:23;20.00;90.90
54429;DHT22;40337;52.978;6.310;2022-07-06T14:34:49;20.00;90.40
54429;DHT22;40337;52.978;6.310;2022-07-06T14:37:14;20.00;90.80
54429;DHT22;40337;52.978;6.310;2022-07-06T14:39:40;20.10;90.60
54429;DHT22;40337;52.978;6.310;2022-07-06T14:42:06;20.10;90.20
54429;DHT22;40337;52.978;6.310;2022-07-06T14:44:31;20.00;90.30
54429;DHT22;40337;52.978;6.310;2022-07-06T14:46:57;20.10;90.60
54429;DHT22;40337;52.978;6.310;2022-07-06T14:49:23;20.10;90.80
54429;DHT22;40337;52.978;6.310;2022-07-06T14:51:49;20.00;91.20
54429;DHT22;40337;52.978;6.310;2022-07-06T14:54:14;19.90;92.00
54429;DHT22;40337;52.978;6.310;2022-07-06T14:56:40;19.80;92.60
54429;DHT22;40337;52.978;6.310;2022-07-06T14:59:06;19.70;92.60
54429;DHT22;40337;52.978;6.310;2022-07-06T15:01:32;19.70;93.00
54429;DHT22;40337;52.978;6.310;2022-07-06T15:03:58;19.70;93.10
54429;DHT22;40337;52.978;6.310;2022-07-06T15:06:23;19.60;93.10
54429;DHT22;40337;52.978;6.310;2022-07-06T15:08:49;19.50;93.10
54429;DHT22;40337;52.978;6.310;2022-07-06T15:11:14;19.40;93.40
54429;DHT22;40337;52.978;6.310;2022-07-06T15:13:40;19.30;93.70
54429;DHT22;40337;52.978;6.310;2022-07-06T15:16:05;19.20;93.80
54429;DHT22;40337;52.978;6.310;2022-07-06T15:18:31;19.20;94.10
54429;DHT22;40337;52.978;6.310;2022-07-06T15:20:57;19.20;94.70
54429;DHT22;40337;52.978;6.310;2022-07-06T15:23:23;19.20;95.50
54429;DHT22;40337;52.978;6.310;2022-07-06T15:25:48;19.20;95.80
54429;DHT22;40337;52.978;6.310;2022-07-06T15:28:14;19.20;96.50
54429;DHT22;40337;52.978;6.310;2022-07-06T15:30:41;19.20;96.60
54429;DHT22;40337;52.978;6.310;2022-07-06T15:33:07;19.00;97.20
54429;DHT22;40337;52.978;6.310;2022-07-06T15:35:34;18.80;98.40
54429;DHT22;40337;52.978;6.310;2022-07-06T15:37:59;18.70;99.40
54429;DHT22;40337;52.978;6.310;2022-07-06T15:40:25;18.50;99.90